Rolls, Texas
Current Conditions -  °F | °C
As of 6:58 PM on Saturday 20 Dec 2014 (Local Time) from KDYS Reporting Station
Overcast Overcast  
Wind Chill: 50°   Ceiling: 3000
Heat Index: 50°   Visibility: 10mi
Dew Point: 40°   Wind: 9mph
Humidity: 69%   Direction: 150°SSE
Pressure: 30.1"   Gusts: NA
Location:  33.1968°N, 99.9025°W
Report Text: KDYS 210058Z AUTO 15008KT 10SM OVC030 10/05 A3010 RMK AO2 SLP188 T01020047 $
Loading
Personal Weather Stations






























Interactive Weather Map New forecast layout! Learn more

10-Day Weather Forecast

Advertisements
Track Severe Weather on mobile